Elsa — WDB7862 — position and weather

sailwx.info

Track history (hours):
 
Tides and Currents Weather Stations Pressure Air Temp Water Temp Dewpoint Dewpoint Depression Visibility Wind Speed Wind Dir Waves Ship Positions

Elsa

Owner: GP RESOURCES INC., TERMINAL ISLAND, CA. More information available from US FCC via Universal Licensing System and Coast Guard Vessel Documentation Center.

Last reported at 2015-Feb-27 07:07 UTC. Time now 2015-Mar-04 16:51 UTC.
Position N 33°44' W 118°10'.

Length 18 m.

Type: Tug. MMSI: 366949020.

Date/timePositionNaut miles runAvg speedWind from/ knotsBaromVisibWave heightAir tempDewpointWater temp
2015-Feb-27 07:07N 33°44' W 118°10'2 3.2
2015-Feb-27 06:29N 33°44' W 118°13'0 0.0
2015-Feb-27 05:34N 33°44' W 118°13'0 0.0
2015-Feb-27 04:33N 33°44' W 118°13'0 0.0
2015-Feb-27 03:33N 33°44' W 118°13'0 0.0
2015-Feb-27 02:30N 33°44' W 118°13'0 0.0
2015-Feb-27 01:27N 33°44' W 118°13'1 1.5
2015-Feb-27 00:33N 33°43' W 118°14'  
2015-Feb-24 19:23N 33°46' W 118°15'0 0.0
2015-Feb-24 18:33N 33°46' W 118°15'0 0.0
2015-Feb-24 17:30N 33°46' W 118°15'  
2015-Feb-22 10:24N 33°45' W 118°16'1 0.6
2015-Feb-22 09:33N 33°46' W 118°15'0 0.0
2015-Feb-22 08:33N 33°46' W 118°15'0 0.1
2015-Feb-22 06:32N 33°46' W 118°15'0 0.2
2015-Feb-22 05:09N 33°46' W 118°16'5 0.6
2015-Feb-21 20:32N 33°44' W 118°10'2 0.9
2015-Feb-21 18:24N 33°44' W 118°12'1 0.3
2015-Feb-21 16:29N 33°44' W 118°13'2 0.1
2015-Feb-20 01:22N 33°43' W 118°16'3 1.5
2015-Feb-19 23:22N 33°44' W 118°12'0 0.0
2015-Feb-19 22:33N 33°44' W 118°12'2 1.9
2015-Feb-19 21:33N 33°43' W 118°14'2 0.1
2015-Feb-18 19:17N 33°44' W 118°16'3 3.7
2015-Feb-18 18:34N 33°44' W 118°13'1 0.7
2015-Feb-18 17:21N 33°45' W 118°12'0 0.0
2015-Feb-18 16:31N 33°45' W 118°12'  
Track history (hours):
 
Tides and Currents Weather Stations Pressure Air Temp Water Temp Dewpoint Dewpoint Depression Visibility Wind Speed Wind Dir Waves Ship Positions

Elsa

Owner: GP RESOURCES INC., TERMINAL ISLAND, CA. More information available from US FCC via Universal Licensing System and Coast Guard Vessel Documentation Center.

Last reported at 2015-Feb-27 07:07 UTC. Time now 2015-Mar-04 16:51 UTC.
Position N 33°44' W 118°10'.

Length 18 m.

Type: Tug. MMSI: 366949020.

Date/timePositionNaut miles runAvg speedWind from/ knotsBaromVisibWave heightAir tempDewpointWater temp
2015-Feb-27 07:07N 33°44' W 118°10'2 3.2
2015-Feb-27 06:29N 33°44' W 118°13'0 0.0
2015-Feb-27 05:34N 33°44' W 118°13'0 0.0
2015-Feb-27 04:33N 33°44' W 118°13'0 0.0
2015-Feb-27 03:33N 33°44' W 118°13'0 0.0
2015-Feb-27 02:30N 33°44' W 118°13'0 0.0
2015-Feb-27 01:27N 33°44' W 118°13'1 1.5
2015-Feb-27 00:33N 33°43' W 118°14'  
2015-Feb-24 19:23N 33°46' W 118°15'0 0.0
2015-Feb-24 18:33N 33°46' W 118°15'0 0.0
2015-Feb-24 17:30N 33°46' W 118°15'  
2015-Feb-22 10:24N 33°45' W 118°16'1 0.6
2015-Feb-22 09:33N 33°46' W 118°15'0 0.0
2015-Feb-22 08:33N 33°46' W 118°15'0 0.1
2015-Feb-22 06:32N 33°46' W 118°15'0 0.2
2015-Feb-22 05:09N 33°46' W 118°16'5 0.6
2015-Feb-21 20:32N 33°44' W 118°10'2 0.9
2015-Feb-21 18:24N 33°44' W 118°12'1 0.3
2015-Feb-21 16:29N 33°44' W 118°13'2 0.1
2015-Feb-20 01:22N 33°43' W 118°16'3 1.5
2015-Feb-19 23:22N 33°44' W 118°12'0 0.0
2015-Feb-19 22:33N 33°44' W 118°12'2 1.9
2015-Feb-19 21:33N 33°43' W 118°14'2 0.1
2015-Feb-18 19:17N 33°44' W 118°16'3 3.7
2015-Feb-18 18:34N 33°44' W 118°13'1 0.7
2015-Feb-18 17:21N 33°45' W 118°12'0 0.0
2015-Feb-18 16:31N 33°45' W 118°12'  

Dump ship's entire track history